^^
Meteo Knjazevac Station Historical Data
Daily Summary for June 23, 2021 Units:  Both    English   Metric
Daily Weekly Monthly Yearly Custom
  High: Low: Average:
Temperature: 85.6 °F /  29.8 °C 54.7 °F /  12.6 °C 69.6 °F /  20.9 °C
Dew Point: 66.6 °F /  19.2 °C 53.9 °F /  12.2 °C 60.6 °F /  15.9 °C
Humidity: 99% 47% 76%
Wind Speed: 5mph /  8km/h - 1.1mph /  1.8km/h
Wind Gust: 10mph /  16.1km/h - -
Wind- - SW
Pressure: 30.12 in /  1019.9 hPa 30.02 in /  1016.5 hPa -
Precipitation: 0.00 in /  0 mm    
Historical Graphs
 
 
Tabular Data for June 23, 2021
Time Temperature Dew Point Pressure Wind Wind Speed Wind Gust Humidity Rainfall Rate (Hourly) solar Conditions
00:00 62.2 °F /  16.8 °C 59.5 °F /  15.3 °C 30.12in /  1019.9hPa Calm   1mph /  1.6km/h 91% 0.00in /  0mm 0 W/m2
00:10 61.8 °F /  16.6 °C 58.8 °F /  14.9 °C 30.12in /  1019.9hPa WNW 1mph /  1.6km/h 2mph /  3.2km/h 90% 0.00in /  0mm 0 W/m2
00:20 61 °F /  16.1 °C 58.4 °F /  14.7 °C 30.12in /  1019.9hPa Calm   2mph /  3.2km/h 91% 0.00in /  0mm 0 W/m2
00:30 61 °F /  16.1 °C 58.3 °F /  14.6 °C 30.12in /  1019.9hPa NW 1mph /  1.6km/h 2mph /  3.2km/h 91% 0.00in /  0mm 0 W/m2
00:40 60.6 °F /  15.9 °C 58 °F /  14.4 °C 30.12in /  1019.9hPa West 1mph /  1.6km/h 2mph /  3.2km/h 91% 0.00in /  0mm 0 W/m2
00:50 60.3 °F /  15.7 °C 58.2 °F /  14.6 °C 30.12in /  1019.9hPa Calm   2mph /  3.2km/h 93% 0.00in /  0mm 0 W/m2
01:00 60.1 °F /  15.6 °C 58.1 °F /  14.5 °C 30.12in /  1019.9hPa Calm   2mph /  3.2km/h 93% 0.00in /  0mm 0 W/m2
01:10 60.1 °F /  15.6 °C 58 °F /  14.4 °C 30.12in /  1019.9hPa Calm   2mph /  3.2km/h 93% 0.00in /  0mm 0 W/m2
01:20 59.7 °F /  15.4 °C 57.7 °F /  14.3 °C 30.12in /  1019.9hPa West 1mph /  1.6km/h 2mph /  3.2km/h 93% 0.00in /  0mm 0 W/m2
01:30 59.5 °F /  15.3 °C 57.8 °F /  14.3 °C 30.12in /  1019.9hPa Calm   2mph /  3.2km/h 94% 0.00in /  0mm 0 W/m2
01:40 59.2 °F /  15.1 °C 57.5 °F /  14.2 °C 30.12in /  1019.9hPa Calm   2mph /  3.2km/h 94% 0.00in /  0mm 0 W/m2
01:50 59 °F /  15 °C 57.3 °F /  14.1 °C 30.12in /  1019.9hPa West 1mph /  1.6km/h 2mph /  3.2km/h 94% 0.00in /  0mm 0 W/m2
02:00 58.8 °F /  14.9 °C 57.1 °F /  13.9 °C 30.12in /  1019.9hPa Calm   2mph /  3.2km/h 94% 0.00in /  0mm 0 W/m2
02:10 58.5 °F /  14.7 °C 56.7 °F /  13.7 °C 30.12in /  1019.9hPa West 1mph /  1.6km/h 2mph /  3.2km/h 94% 0.00in /  0mm 0 W/m2
02:20 58.3 °F /  14.6 °C 56.9 °F /  13.8 °C 30.12in /  1019.9hPa Calm   2mph /  3.2km/h 95% 0.00in /  0mm 0 W/m2
02:30 58.3 °F /  14.6 °C 56.9 °F /  13.8 °C 30.12in /  1019.9hPa WNW 2mph /  3.2km/h 3mph /  4.8km/h 95% 0.00in /  0mm 0 W/m2
02:40 58.1 °F /  14.5 °C 56.7 °F /  13.7 °C 30.12in /  1019.9hPa West 1mph /  1.6km/h 3mph /  4.8km/h 95% 0.00in /  0mm 0 W/m2
02:50 57.8 °F /  14.3 °C 56.3 °F /  13.5 °C 30.12in /  1019.9hPa WNW 1mph /  1.6km/h 2mph /  3.2km/h 95% 0.00in /  0mm 0 W/m2
03:00 57.7 °F /  14.3 °C 56.3 °F /  13.5 °C 30.12in /  1019.9hPa Calm   2mph /  3.2km/h 95% 0.00in /  0mm 0 W/m2
03:10 57.7 °F /  14.3 °C 56.3 °F /  13.5 °C 30.12in /  1019.9hPa WNW 1mph /  1.6km/h 2mph /  3.2km/h 95% 0.00in /  0mm 0 W/m2
03:20 57.4 °F /  14.1 °C 56 °F /  13.3 °C 30.12in /  1019.9hPa Calm   2mph /  3.2km/h 95% 0.00in /  0mm 0 W/m2
03:30 57.2 °F /  14 °C 55.8 °F /  13.2 °C 30.12in /  1019.9hPa WSW 1mph /  1.6km/h 2mph /  3.2km/h 95% 0.00in /  0mm 0 W/m2
03:40 57 °F /  13.9 °C 55.9 °F /  13.3 °C 30.12in /  1019.9hPa WNW 1mph /  1.6km/h 3mph /  4.8km/h 96% 0.00in /  0mm 0 W/m2
03:50 56.8 °F /  13.8 °C 55.7 °F /  13.2 °C 30.12in /  1019.9hPa Calm   2mph /  3.2km/h 96% 0.00in /  0mm 0 W/m2
04:00 56.5 °F /  13.6 °C 55.4 °F /  13 °C 30.12in /  1019.9hPa Calm   2mph /  3.2km/h 96% 0.00in /  0mm 0 W/m2
04:10 56.3 °F /  13.5 °C 55.2 °F /  12.9 °C 30.12in /  1019.9hPa Calm   2mph /  3.2km/h 96% 0.00in /  0mm 0 W/m2
04:20 56.1 °F /  13.4 °C 54.7 °F /  12.6 °C 30.12in /  1019.9hPa Calm   2mph /  3.2km/h 95% 0.00in /  0mm 0 W/m2
04:30 55.8 °F /  13.2 °C 54.7 °F /  12.6 °C 30.12in /  1019.9hPa WNW 1mph /  1.6km/h 2mph /  3.2km/h 96% 0.00in /  0mm 0 W/m2
04:40 55.6 °F /  13.1 °C 54.5 °F /  12.5 °C 30.12in /  1019.9hPa WSW 2mph /  3.2km/h 3mph /  4.8km/h 96% 0.00in /  0mm 0 W/m2
04:50 55.4 °F /  13 °C 54.3 °F /  12.4 °C 30.12in /  1019.9hPa West 1mph /  1.6km/h 3mph /  4.8km/h 96% 0.00in /  0mm 0 W/m2
05:00 55.4 °F /  13 °C 54.3 °F /  12.4 °C 30.12in /  1019.9hPa Calm   2mph /  3.2km/h 96% 0.00in /  0mm 0 W/m2
05:10 55.2 °F /  12.9 °C 54.1 °F /  12.3 °C 30.12in /  1019.9hPa Calm   2mph /  3.2km/h 96% 0.00in /  0mm 0 W/m2
05:20 55.1 °F /  12.8 °C 54.5 °F /  12.5 °C 30.12in /  1019.9hPa NW 1mph /  1.6km/h 2mph /  3.2km/h 98% 0.00in /  0mm 7 W/m2
05:30 55 °F /  12.8 °C 54.5 °F /  12.5 °C 30.12in /  1019.9hPa NNW 1mph /  1.6km/h 3mph /  4.8km/h 98% 0.00in /  0mm 14 W/m2
05:40 55 °F /  12.8 °C 53.9 °F /  12.2 °C 30.12in /  1019.9hPa Calm   2mph /  3.2km/h 96% 0.00in /  0mm 22 W/m2
05:50 54.9 °F /  12.7 °C 54.3 °F /  12.4 °C 30.12in /  1019.9hPa NW 1mph /  1.6km/h 2mph /  3.2km/h 98% 0.00in /  0mm 32 W/m2
06:00 54.7 °F /  12.6 °C 54.1 °F /  12.3 °C 30.12in /  1019.9hPa West 1mph /  1.6km/h 2mph /  3.2km/h 98% 0.00in /  0mm 48 W/m2
06:10 54.7 °F /  12.6 °C 54.1 °F /  12.3 °C 30.12in /  1019.9hPa Calm   2mph /  3.2km/h 98% 0.00in /  0mm 58 W/m2
06:20 54.7 °F /  12.6 °C 54.1 °F /  12.3 °C 30.12in /  1019.9hPa West 1mph /  1.6km/h 2mph /  3.2km/h 98% 0.00in /  0mm 64 W/m2
06:30 54.9 °F /  12.7 °C 54.3 °F /  12.4 °C 30.12in /  1019.9hPa Calm   3mph /  4.8km/h 98% 0.00in /  0mm 74 W/m2
06:40 55 °F /  12.8 °C 54.7 °F /  12.6 °C 30.12in /  1019.9hPa Calm   2mph /  3.2km/h 99% 0.00in /  0mm 93 W/m2
06:50 55.2 °F /  12.9 °C 54.9 °F /  12.7 °C 30.12in /  1019.9hPa West 2mph /  3.2km/h 2mph /  3.2km/h 99% 0.00in /  0mm 111 W/m2
07:00 55.7 °F /  13.2 °C 55.5 °F /  13.1 °C 30.12in /  1019.9hPa WNW 1mph /  1.6km/h 3mph /  4.8km/h 99% 0.00in /  0mm 155 W/m2
07:10 56.1 °F /  13.4 °C 55.8 °F /  13.2 °C 30.12in /  1019.9hPa WNW 1mph /  1.6km/h 3mph /  4.8km/h 99% 0.00in /  0mm 133 W/m2
07:20 56.8 °F /  13.8 °C 56.6 °F /  13.7 °C 30.12in /  1019.9hPa West 1mph /  1.6km/h 3mph /  4.8km/h 99% 0.00in /  0mm 146 W/m2
07:30 57.2 °F /  14 °C 56.9 °F /  13.8 °C 30.12in /  1019.9hPa WSW 1mph /  1.6km/h 2mph /  3.2km/h 99% 0.00in /  0mm 196 W/m2
07:40 57.7 °F /  14.3 °C 57.5 °F /  14.2 °C 30.12in /  1019.9hPa Calm   2mph /  3.2km/h 99% 0.00in /  0mm 325 W/m2
07:50 58.5 °F /  14.7 °C 58.2 °F /  14.6 °C 30.12in /  1019.9hPa West 1mph /  1.6km/h 3mph /  4.8km/h 99% 0.00in /  0mm 234 W/m2
08:00 59.2 °F /  15.1 °C 58.9 °F /  14.9 °C 30.12in /  1019.9hPa WSW 1mph /  1.6km/h 2mph /  3.2km/h 99% 0.00in /  0mm 375 W/m2
08:10 59.9 °F /  15.5 °C 59.3 °F /  15.2 °C 30.12in /  1019.9hPa Calm   2mph /  3.2km/h 98% 0.00in /  0mm 415 W/m2
08:20 60.8 °F /  16 °C 59.3 °F /  15.2 °C 30.12in /  1019.9hPa Calm   3mph /  4.8km/h 95% 0.00in /  0mm 433 W/m2
08:30 61.5 °F /  16.4 °C 59.8 °F /  15.4 °C 30.12in /  1019.9hPa WNW 1mph /  1.6km/h 2mph /  3.2km/h 94% 0.00in /  0mm 490 W/m2
08:40 62.6 °F /  17 °C 60.5 °F /  15.8 °C 30.12in /  1019.9hPa Calm   3mph /  4.8km/h 93% 0.00in /  0mm 528 W/m2
08:50 63.5 °F /  17.5 °C 60.8 °F /  16 °C 30.12in /  1019.9hPa SSW 1mph /  1.6km/h 3mph /  4.8km/h 91% 0.00in /  0mm 562 W/m2
09:00 64.7 °F /  18.2 °C 61.7 °F /  16.5 °C 30.12in /  1019.9hPa WNW 1mph /  1.6km/h 3mph /  4.8km/h 90% 0.00in /  0mm 582 W/m2
09:10 67.1 °F /  19.5 °C 62.8 °F /  17.1 °C 30.12in /  1019.9hPa WSW 1mph /  1.6km/h 3mph /  4.8km/h 86% 0.00in /  0mm 654 W/m2
09:20 69.1 °F /  20.6 °C 64 °F /  17.8 °C 30.12in /  1019.9hPa WSW 1mph /  1.6km/h 3mph /  4.8km/h 84% 0.00in /  0mm 680 W/m2
09:30 70.5 °F /  21.4 °C 64 °F /  17.8 °C 30.12in /  1019.9hPa West 1mph /  1.6km/h 7mph /  11.3km/h 80% 0.00in /  0mm 597 W/m2
09:40 71.1 °F /  21.7 °C 64.6 °F /  18.1 °C 30.12in /  1019.9hPa Calm   3mph /  4.8km/h 80% 0.00in /  0mm 481 W/m2
09:50 71.8 °F /  22.1 °C 64.5 °F /  18.1 °C 30.11in /  1019.5hPa Calm   2mph /  3.2km/h 78% 0.00in /  0mm 687 W/m2
10:00 72.5 °F /  22.5 °C 64.1 °F /  17.8 °C 30.11in /  1019.5hPa West 1mph /  1.6km/h 5mph /  8km/h 75% 0.00in /  0mm 633 W/m2
10:10 73.6 °F /  23.1 °C 64.4 °F /  18 °C 30.11in /  1019.5hPa West 1mph /  1.6km/h 3mph /  4.8km/h 73% 0.00in /  0mm 796 W/m2
10:20 74.8 °F /  23.8 °C 64.4 °F /  18 °C 30.11in /  1019.5hPa West 1mph /  1.6km/h 4mph /  6.4km/h 70% 0.00in /  0mm 816 W/m2
10:30 76.3 °F /  24.6 °C 64.5 °F /  18.1 °C 30.10in /  1019.2hPa SW 1mph /  1.6km/h 4mph /  6.4km/h 67% 0.00in /  0mm 835 W/m2
10:40 77.2 °F /  25.1 °C 64.5 °F /  18.1 °C 30.11in /  1019.5hPa NNE 3mph /  4.8km/h 6mph /  9.7km/h 65% 0.00in /  0mm 852 W/m2
10:50 77.9 °F /  25.5 °C 65.2 °F /  18.4 °C 30.10in /  1019.2hPa NNE 3mph /  4.8km/h 6mph /  9.7km/h 65% 0.00in /  0mm 342 W/m2
11:00 78.1 °F /  25.6 °C 64.9 °F /  18.3 °C 30.10in /  1019.2hPa NNE 2mph /  3.2km/h 6mph /  9.7km/h 64% 0.00in /  0mm 883 W/m2
11:10 78.8 °F /  26 °C 65.1 °F /  18.4 °C 30.10in /  1019.2hPa NE 1mph /  1.6km/h 7mph /  11.3km/h 63% 0.00in /  0mm 897 W/m2
11:20 79.7 °F /  26.5 °C 65.5 °F /  18.6 °C 30.10in /  1019.2hPa NE 3mph /  4.8km/h 10mph /  16.1km/h 62% 0.00in /  0mm 698 W/m2
11:30 79.7 °F /  26.5 °C 64.1 °F /  17.8 °C 30.09in /  1018.8hPa NNE 1mph /  1.6km/h 7mph /  11.3km/h 59% 0.00in /  0mm 919 W/m2
11:40 80.1 °F /  26.7 °C 64.4 °F /  18 °C 30.09in /  1018.8hPa North 2mph /  3.2km/h 6mph /  9.7km/h 59% 0.00in /  0mm 928 W/m2
11:50 80.4 °F /  26.9 °C 64.8 °F /  18.2 °C 30.09in /  1018.8hPa NNE 1mph /  1.6km/h 7mph /  11.3km/h 59% 0.00in /  0mm 936 W/m2
12:00 80.8 °F /  27.1 °C 64.6 °F /  18.1 °C 30.08in /  1018.5hPa NNE 1mph /  1.6km/h 7mph /  11.3km/h 58% 0.00in /  0mm 942 W/m2
12:10 81.3 °F /  27.4 °C 64.6 °F /  18.1 °C 30.08in /  1018.5hPa NE 1mph /  1.6km/h 5mph /  8km/h 57% 0.00in /  0mm 947 W/m2
12:20 81.5 °F /  27.5 °C 63.8 °F /  17.7 °C 30.08in /  1018.5hPa NNW 1mph /  1.6km/h 6mph /  9.7km/h 55% 0.00in /  0mm 950 W/m2
12:30 81.9 °F /  27.7 °C 64.1 °F /  17.8 °C 30.07in /  1018.2hPa NE 2mph /  3.2km/h 6mph /  9.7km/h 55% 0.00in /  0mm 951 W/m2
12:40 82.4 °F /  28 °C 64.6 °F /  18.1 °C 30.07in /  1018.2hPa NNE 1mph /  1.6km/h 9mph /  14.5km/h 55% 0.00in /  0mm 802 W/m2
12:50 82.9 °F /  28.3 °C 66.6 °F /  19.2 °C 30.07in /  1018.2hPa NNE 2mph /  3.2km/h 7mph /  11.3km/h 58% 0.00in /  0mm 950 W/m2
13:00 83.5 °F /  28.6 °C 65.6 °F /  18.7 °C 30.07in /  1018.2hPa NNE 3mph /  4.8km/h 8mph /  12.9km/h 55% 0.00in /  0mm 947 W/m2
13:10 83.7 °F /  28.7 °C 65.8 °F /  18.8 °C 30.06in /  1017.8hPa NNE 3mph /  4.8km/h 7mph /  11.3km/h 55% 0.00in /  0mm 592 W/m2
13:20 83.1 °F /  28.4 °C 64.2 °F /  17.9 °C 30.06in /  1017.8hPa North 5mph /  8km/h 10mph /  16.1km/h 53% 0.00in /  0mm 360 W/m2
13:30 82.4 °F /  28 °C 64.1 °F /  17.8 °C 30.06in /  1017.8hPa NNW 1mph /  1.6km/h 6mph /  9.7km/h 54% 0.00in /  0mm 272 W/m2
13:40 81.7 °F /  27.6 °C 63.9 °F /  17.7 °C 30.06in /  1017.8hPa NW 2mph /  3.2km/h 6mph /  9.7km/h 55% 0.00in /  0mm 325 W/m2
13:50 81.7 °F /  27.6 °C 62.3 °F /  16.8 °C 30.06in /  1017.8hPa NW 3mph /  4.8km/h 6mph /  9.7km/h 52% 0.00in /  0mm 604 W/m2
14:00 81.7 °F /  27.6 °C 63.4 °F /  17.4 °C 30.06in /  1017.8hPa WNW 3mph /  4.8km/h 7mph /  11.3km/h 54% 0.00in /  0mm 713 W/m2
14:10 81.7 °F /  27.6 °C 61.2 °F /  16.2 °C 30.06in /  1017.8hPa NNW 2mph /  3.2km/h 7mph /  11.3km/h 50% 0.00in /  0mm 883 W/m2
14:20 82 °F /  27.8 °C 62.7 °F /  17.1 °C 30.05in /  1017.5hPa North 1mph /  1.6km/h 5mph /  8km/h 52% 0.00in /  0mm 367 W/m2
14:30 82.2 °F /  27.9 °C 60.6 °F /  15.9 °C 30.05in /  1017.5hPa Calm   4mph /  6.4km/h 48% 0.00in /  0mm 714 W/m2
14:40 82.6 °F /  28.1 °C 61.5 °F /  16.4 °C 30.05in /  1017.5hPa Calm   3mph /  4.8km/h 49% 0.00in /  0mm 835 W/m2
15:00 84.2 °F /  29 °C 61.8 °F /  16.6 °C 30.04in /  1017.2hPa NE 1mph /  1.6km/h 7mph /  11.3km/h 47% 0.00in /  0mm 796 W/m2
15:10 84.7 °F /  29.3 °C 62.3 °F /  16.8 °C 30.04in /  1017.2hPa North 5mph /  8km/h 9mph /  14.5km/h 47% 0.00in /  0mm 775 W/m2
15:20 84.8 °F /  29.3 °C 64.1 °F /  17.8 °C 30.04in /  1017.2hPa NNE 1mph /  1.6km/h 9mph /  14.5km/h 50% 0.00in /  0mm 753 W/m2
15:30 85.3 °F /  29.6 °C 64 °F /  17.8 °C 30.04in /  1017.2hPa NNE 1mph /  1.6km/h 7mph /  11.3km/h 49% 0.00in /  0mm 643 W/m2
15:40 84.9 °F /  29.4 °C 64.2 °F /  17.9 °C 30.04in /  1017.2hPa North 2mph /  3.2km/h 8mph /  12.9km/h 50% 0.00in /  0mm 705 W/m2
15:50 84.9 °F /  29.4 °C 63 °F /  17.2 °C 30.04in /  1017.2hPa North 5mph /  8km/h 7mph /  11.3km/h 48% 0.00in /  0mm 680 W/m2
16:00 85.1 °F /  29.5 °C 63.8 °F /  17.7 °C 30.04in /  1017.2hPa North 3mph /  4.8km/h 7mph /  11.3km/h 49% 0.00in /  0mm 653 W/m2
16:10 85.5 °F /  29.7 °C 64.1 °F /  17.8 °C 30.04in /  1017.2hPa NNW 2mph /  3.2km/h 7mph /  11.3km/h 49% 0.00in /  0mm 626 W/m2
16:20 85.6 °F /  29.8 °C 64.3 °F /  17.9 °C 30.04in /  1017.2hPa North 2mph /  3.2km/h 7mph /  11.3km/h 49% 0.00in /  0mm 599 W/m2
16:30 85.4 °F /  29.7 °C 62.9 °F /  17.2 °C 30.03in /  1016.8hPa NNE 3mph /  4.8km/h 5mph /  8km/h 47% 0.00in /  0mm 570 W/m2
16:40 84.9 °F /  29.4 °C 63 °F /  17.2 °C 30.03in /  1016.8hPa North 3mph /  4.8km/h 8mph /  12.9km/h 48% 0.00in /  0mm 205 W/m2
16:50 84 °F /  28.9 °C 62.2 °F /  16.8 °C 30.03in /  1016.8hPa NNW 2mph /  3.2km/h 9mph /  14.5km/h 48% 0.00in /  0mm 511 W/m2
17:00 84.2 °F /  29 °C 62.4 °F /  16.9 °C 30.03in /  1016.8hPa North 3mph /  4.8km/h 7mph /  11.3km/h 48% 0.00in /  0mm 180 W/m2
17:10 83.5 °F /  28.6 °C 62.3 °F /  16.8 °C 30.03in /  1016.8hPa NNW 2mph /  3.2km/h 7mph /  11.3km/h 49% 0.00in /  0mm 451 W/m2
17:20 83.7 °F /  28.7 °C 62.5 °F /  16.9 °C 30.03in /  1016.8hPa North 2mph /  3.2km/h 7mph /  11.3km/h 49% 0.00in /  0mm 420 W/m2
17:30 83.7 °F /  28.7 °C 61.9 °F /  16.6 °C 30.02in /  1016.5hPa North 1mph /  1.6km/h 6mph /  9.7km/h 48% 0.00in /  0mm 175 W/m2
17:40 83.5 °F /  28.6 °C 62.3 °F /  16.8 °C 30.02in /  1016.5hPa NNW 1mph /  1.6km/h 5mph /  8km/h 49% 0.00in /  0mm 201 W/m2
17:50 83.5 °F /  28.6 °C 62.3 °F /  16.8 °C 30.03in /  1016.8hPa NNW 2mph /  3.2km/h 6mph /  9.7km/h 49% 0.00in /  0mm 230 W/m2
18:00 83.1 °F /  28.4 °C 62.6 °F /  17 °C 30.02in /  1016.5hPa NNW 2mph /  3.2km/h 5mph /  8km/h 50% 0.00in /  0mm 209 W/m2
18:10 82.5 °F /  28.1 °C 63.7 °F /  17.6 °C 30.02in /  1016.5hPa NNW 2mph /  3.2km/h 5mph /  8km/h 53% 0.00in /  0mm 97 W/m2
18:20 81.7 °F /  27.6 °C 62.9 °F /  17.2 °C 30.03in /  1016.8hPa NNW 1mph /  1.6km/h 5mph /  8km/h 53% 0.00in /  0mm 110 W/m2
18:30 81 °F /  27.2 °C 64.3 °F /  17.9 °C 30.02in /  1016.5hPa NNW 1mph /  1.6km/h 3mph /  4.8km/h 57% 0.00in /  0mm 95 W/m2
18:40 80.4 °F /  26.9 °C 64.8 °F /  18.2 °C 30.03in /  1016.8hPa NW 1mph /  1.6km/h 2mph /  3.2km/h 59% 0.00in /  0mm 100 W/m2
18:50 79.7 °F /  26.5 °C 65.5 °F /  18.6 °C 30.03in /  1016.8hPa WNW 1mph /  1.6km/h 2mph /  3.2km/h 62% 0.00in /  0mm 91 W/m2
19:00 78.6 °F /  25.9 °C 65.4 °F /  18.6 °C 30.03in /  1016.8hPa South 1mph /  1.6km/h 4mph /  6.4km/h 64% 0.00in /  0mm 77 W/m2
19:10 78.1 °F /  25.6 °C 65.4 °F /  18.6 °C 30.03in /  1016.8hPa SW 1mph /  1.6km/h 3mph /  4.8km/h 65% 0.00in /  0mm 62 W/m2
19:20 77.5 °F /  25.3 °C 65.7 °F /  18.7 °C 30.03in /  1016.8hPa South 2mph /  3.2km/h 3mph /  4.8km/h 67% 0.00in /  0mm 47 W/m2
19:30 76.6 °F /  24.8 °C 65.3 °F /  18.5 °C 30.03in /  1016.8hPa South 2mph /  3.2km/h 4mph /  6.4km/h 68% 0.00in /  0mm 35 W/m2
19:40 75.7 °F /  24.3 °C 64.8 °F /  18.2 °C 30.04in /  1017.2hPa SW 2mph /  3.2km/h 3mph /  4.8km/h 69% 0.00in /  0mm 23 W/m2
19:50 75 °F /  23.9 °C 64.2 °F /  17.9 °C 30.04in /  1017.2hPa South 2mph /  3.2km/h 4mph /  6.4km/h 69% 0.00in /  0mm 13 W/m2
20:00 74.1 °F /  23.4 °C 63.7 °F /  17.6 °C 30.04in /  1017.2hPa South 1mph /  1.6km/h 4mph /  6.4km/h 70% 0.00in /  0mm 5 W/m2
20:10 73.6 °F /  23.1 °C 64.4 °F /  18 °C 30.04in /  1017.2hPa SW 1mph /  1.6km/h 3mph /  4.8km/h 73% 0.00in /  0mm 0 W/m2
20:20 73 °F /  22.8 °C 64.6 °F /  18.1 °C 30.04in /  1017.2hPa SW 1mph /  1.6km/h 2mph /  3.2km/h 75% 0.00in /  0mm 0 W/m2
20:30 72.3 °F /  22.4 °C 63.6 °F /  17.6 °C 30.05in /  1017.5hPa SSW 1mph /  1.6km/h 3mph /  4.8km/h 74% 0.00in /  0mm 0 W/m2
20:40 71.2 °F /  21.8 °C 62.5 °F /  16.9 °C 30.05in /  1017.5hPa South 1mph /  1.6km/h 6mph /  9.7km/h 74% 0.00in /  0mm 0 W/m2
20:50 70.5 °F /  21.4 °C 62.2 °F /  16.8 °C 30.05in /  1017.5hPa South 1mph /  1.6km/h 4mph /  6.4km/h 75% 0.00in /  0mm 0 W/m2
21:00 69.8 °F /  21 °C 61.5 °F /  16.4 °C 30.06in /  1017.8hPa SSW 3mph /  4.8km/h 5mph /  8km/h 75% 0.00in /  0mm 0 W/m2
21:10 69.1 °F /  20.6 °C 61.6 °F /  16.4 °C 30.06in /  1017.8hPa South 1mph /  1.6km/h 4mph /  6.4km/h 77% 0.00in /  0mm 0 W/m2
21:20 68.5 °F /  20.3 °C 61 °F /  16.1 °C 30.06in /  1017.8hPa South 1mph /  1.6km/h 3mph /  4.8km/h 77% 0.00in /  0mm 0 W/m2
21:30 67.8 °F /  19.9 °C 60.7 °F /  15.9 °C 30.06in /  1017.8hPa SSE 1mph /  1.6km/h 3mph /  4.8km/h 78% 0.00in /  0mm 0 W/m2
21:40 67.3 °F /  19.6 °C 60.2 °F /  15.7 °C 30.06in /  1017.8hPa Calm   3mph /  4.8km/h 78% 0.00in /  0mm 0 W/m2
21:50 66.9 °F /  19.4 °C 60.5 °F /  15.8 °C 30.06in /  1017.8hPa Calm   1mph /  1.6km/h 80% 0.00in /  0mm 0 W/m2
22:00 66.6 °F /  19.2 °C 61.3 °F /  16.3 °C 30.06in /  1017.8hPa Calm   1mph /  1.6km/h 83% 0.00in /  0mm 0 W/m2
22:10 66.2 °F /  19 °C 61.3 °F /  16.3 °C 30.06in /  1017.8hPa Calm   2mph /  3.2km/h 84% 0.00in /  0mm 0 W/m2
22:20 66 °F /  18.9 °C 61 °F /  16.1 °C 30.06in /  1017.8hPa Calm   2mph /  3.2km/h 84% 0.00in /  0mm 0 W/m2
22:30 65.3 °F /  18.5 °C 60.6 °F /  15.9 °C 30.06in /  1017.8hPa Calm   2mph /  3.2km/h 85% 0.00in /  0mm 0 W/m2
22:40 64.9 °F /  18.3 °C 60.3 °F /  15.7 °C 30.07in /  1018.2hPa Calm   2mph /  3.2km/h 85% 0.00in /  0mm 0 W/m2
22:50 64.4 °F /  18 °C 60.1 °F /  15.6 °C 30.07in /  1018.2hPa WSW 2mph /  3.2km/h 4mph /  6.4km/h 86% 0.00in /  0mm 0 W/m2
23:00 63.9 °F /  17.7 °C 59.6 °F /  15.3 °C 30.07in /  1018.2hPa Calm   5mph /  8km/h 86% 0.00in /  0mm 0 W/m2
23:10 63.5 °F /  17.5 °C 59.2 °F /  15.1 °C 30.07in /  1018.2hPa WSW 2mph /  3.2km/h 2mph /  3.2km/h 86% 0.00in /  0mm 0 W/m2
23:20 63 °F /  17.2 °C 58.7 °F /  14.8 °C 30.07in /  1018.2hPa West 1mph /  1.6km/h 2mph /  3.2km/h 86% 0.00in /  0mm 0 W/m2
23:30 62.8 °F /  17.1 °C 58.5 °F /  14.7 °C 30.08in /  1018.5hPa Calm   3mph /  4.8km/h 86% 0.00in /  0mm 0 W/m2
23:40 62.6 °F /  17 °C 58.4 °F /  14.7 °C 30.08in /  1018.5hPa SSE 1mph /  1.6km/h 3mph /  4.8km/h 86% 0.00in /  0mm 0 W/m2
23:50 62.4 °F /  16.9 °C 58.8 °F /  14.9 °C 30.08in /  1018.5hPa Calm   2mph /  3.2km/h 88% 0.00in /  0mm 0 W/m2
Knjazevac, Serbia
Compliments of Weather Underground - 2 mb